Fraser, Colorado
Current Conditions -  °F | °C
As of 9:30 PM on Tuesday 21 Oct 2014 (Local Time) from K0CO Reporting Station
Overcast Overcast  
Wind Chill: 20°   Ceiling: 9000
Heat Index: 30°   Visibility: 10mi
Dew Point: 27°   Wind: 14mph
Humidity: 86%   Direction: 280°W
Pressure: 30.33"   Gusts: NA
Location:  39.94°N, 105.82°W
Report Text: K0CO 220330Z AUTO 28012KT 10SM SCT070 BKN090 OVC110 M01/M03 A3033 RMK AO2 LTG DSNT SW
Loading
Personal Weather Stations






























Interactive Weather Map
Tropical Storm Tracking
New forecast layout! Learn more

10-Day Weather Forecast

Advertisements
Track Severe Weather on mobile